ADDS METAR Data INFO
IDs: Format: Raw Decoded Include TAF

Data at: 1509 UTC 21 Feb 2018

K33V 201455Z AUTO 13006KT 10SM CLR M24/M27 A2975 RMK AO1
K33V 211435Z AUTO 13006KT 10SM CLR M19/M23 A3004 RMK AO1
K33V 211415Z AUTO 13004KT 10SM CLR M18/M22 A3004 RMK AO1
K33V 211355Z AUTO 13006KT 10SM CLR M20/M23 A3004 RMK AO1
K33V 211335Z AUTO 13005KT 10SM CLR M20/M24 A3003 RMK AO1
K33V 211315Z AUTO 13005KT 10SM CLR M21/M24 A3004 RMK AO1
K33V 211255Z AUTO 13007KT 10SM CLR M22/M25 A3004 RMK AO1
K33V 211235Z AUTO 14006KT 10SM CLR M22/M26 A3003 RMK AO1
K33V 201515Z AUTO 14006KT 10SM CLR M23/M26 A2976 RMK AO1
K33V 201455Z AUTO 13006KT 10SM CLR M24/M27 A2975 RMK AO1
K33V 201435Z AUTO 14003KT 10SM CLR M24/M28 A2974 RMK AO1
K33V 201415Z AUTO 14005KT 10SM CLR M24/M27 A2973 RMK AO1
K33V 201355Z AUTO 15003KT 10SM CLR M25/M29 A2972 RMK AO1
K33V 201335Z AUTO 13003KT 10SM CLR M25/M29 A2972 RMK AO1
K33V 201315Z AUTO 14004KT 10SM CLR M25/M29 A2971 RMK AO1
K33V 201255Z AUTO 00000KT 10SM CLR M25/M29 A2970 RMK AO1
K33V 201235Z AUTO 17003KT 10SM SCT120 M25/M29 A2969 RMK AO1
K33V 201215Z AUTO 14007KT 10SM SCT120 M25/M29 A2968 RMK AO1
K33V 201155Z AUTO 00000KT 10SM SCT120 M24/M27 A2967 RMK AO1
K33V 201135Z AUTO 00000KT 10SM CLR M24/M27 A2966 RMK AO1
K33V 201115Z AUTO 28003KT 10SM CLR M22/M26 A2965 RMK AO1
K33V 201055Z AUTO 00000KT 10SM CLR M22/M25 A2964 RMK AO1
K33V 201035Z AUTO 00000KT 10SM CLR M23/M27 A2963 RMK AO1
K33V 201015Z AUTO 00000KT 10SM CLR M22/M26 A2963 RMK AO1
K33V 200955Z AUTO 05004KT 10SM CLR M23/M26 A2962 RMK AO1
K33V 200935Z AUTO 07003KT 10SM SCT120 M22/M26 A2962 RMK AO1
K33V 200915Z AUTO 01006KT 10SM BKN120 M21/M25 A2961 RMK AO1
K33V 200855Z AUTO 02009KT 10SM OVC110 M21/M25 A2960 RMK AO1
K33V 200835Z AUTO 01009KT 10SM OVC090 M21/M25 A2959 RMK AO1
K33V 200815Z AUTO 01009KT 10SM SCT020 OVC090 M21/M25 A2958 RMK AO1
K33V 200755Z AUTO 36011KT 10SM SCT020 SCT080 OVC090 M21/M25 A2957 RMK AO1
K33V 200735Z AUTO 35013KT 10SM SCT019 SCT055 OVC090 M21/M25 A2955 RMK AO1
K33V 200715Z AUTO 36013G17KT 10SM BKN019 BKN044 OVC070 M21/M25 A2954 RMK AO1
K33V 200655Z AUTO 35015KT 10SM SCT019 BKN037 OVC060 M20/M24 A2953 RMK AO1
K33V 200635Z AUTO 36015KT 7SM SCT013 OVC038 M20/M24 A2952 RMK AO1
K33V 200615Z AUTO 35016G20KT 2 1/2SM SCT007 BKN011 OVC038 M21/M24 A2950 RMK AO1
K33V 200555Z AUTO 36017G21KT 1 1/2SM OVC005 M20/M24 A2949 RMK AO1
K33V 200535Z AUTO 36016G20KT 3/4SM OVC003 M20/M24 A2947 RMK AO1
K33V 200515Z AUTO 35018G24KT 7SM SCT009 SCT016 BKN023 M20/M23 A2944 RMK AO1
K33V 200455Z AUTO 34020G26KT 10SM SCT042 M20/M24 A2946 RMK AO1
K33V 200435Z AUTO 35018KT 10SM SCT100 SCT120 M20/M24 A2944 RMK AO1
K33V 200415Z AUTO 35017G21KT 10SM SCT100 BKN120 M20/M23 A2942 RMK AO1
K33V 200355Z AUTO 36013KT 10SM SCT090 SCT120 M19/M22 A2941 RMK AO1
K33V 200335Z AUTO 36009KT 10SM SCT060 SCT075 OVC090 M18/M21 A2944 RMK AO1
K33V 200315Z AUTO 02007KT 10SM BKN060 BKN070 OVC080 M18/M21 A2943 RMK AO1